createdAt,value
2024-01-29T00:01:45.744Z,15.90
2024-01-29T00:04:13.774Z,15.65
2024-01-29T00:06:41.616Z,16.67
2024-01-29T00:09:09.497Z,16.73
2024-01-29T00:11:38.727Z,16.45
2024-01-29T00:14:07.399Z,16.45
2024-01-29T00:16:35.169Z,15.75
2024-01-29T00:19:03.102Z,16.90
2024-01-29T00:21:32.079Z,15.90
2024-01-29T00:24:01.998Z,15.73
2024-01-29T00:26:30.414Z,16.45
2024-01-29T00:28:59.770Z,16.13
2024-01-29T00:31:29.588Z,15.73
2024-01-29T00:33:57.547Z,16.05
2024-01-29T00:36:25.501Z,17.15
2024-01-29T00:38:53.385Z,15.98
2024-01-29T00:41:21.206Z,16.60
2024-01-29T00:43:48.994Z,16.27
2024-01-29T00:46:18.216Z,16.17
2024-01-29T00:48:46.269Z,18.27
2024-01-29T00:51:14.195Z,16.92
2024-01-29T00:53:42.026Z,17.48
2024-01-29T00:56:09.876Z,18.77
2024-01-29T00:58:37.718Z,20.40
2024-01-29T01:01:06.393Z,18.17
2024-01-29T01:03:35.647Z,18.17
2024-01-29T01:06:03.544Z,20.20
2024-01-29T01:08:31.465Z,20.20
2024-01-29T01:10:59.290Z,18.02
2024-01-29T01:13:27.178Z,20.05
2024-01-29T01:15:55.026Z,19.65
2024-01-29T01:18:23.071Z,19.45
2024-01-29T01:20:52.286Z,17.73
2024-01-29T01:23:20.138Z,15.57
2024-01-29T01:25:48.066Z,16.80
2024-01-29T01:28:15.881Z,14.73
2024-01-29T01:30:43.796Z,16.35
2024-01-29T01:33:11.878Z,17.23
2024-01-29T01:35:39.791Z,16.23
2024-01-29T01:38:08.980Z,16.08
2024-01-29T01:40:36.844Z,15.65
2024-01-29T01:43:16.663Z,16.00
2024-01-29T01:45:44.493Z,16.48
2024-01-29T01:48:12.929Z,16.42
2024-01-29T01:50:41.120Z,16.65
2024-01-29T01:53:10.282Z,17.90
2024-01-29T01:55:38.254Z,17.50
2024-01-29T01:58:08.323Z,17.13
2024-01-29T02:00:36.500Z,15.93
2024-01-29T02:03:04.998Z,16.63
2024-01-29T02:05:32.963Z,16.10
2024-01-29T02:08:00.864Z,18.17
2024-01-29T02:10:30.155Z,16.83
2024-01-29T02:12:58.200Z,17.13
2024-01-29T02:15:26.113Z,18.33
2024-01-29T02:17:54.048Z,16.95
2024-01-29T02:20:22.716Z,16.38
2024-01-29T02:22:51.852Z,15.90
2024-01-29T02:25:19.666Z,15.05
2024-01-29T02:27:47.501Z,15.30
2024-01-29T02:30:15.753Z,15.90
2024-01-29T02:32:43.872Z,15.27
2024-01-29T02:35:11.785Z,15.38
2024-01-29T02:37:39.670Z,15.23
2024-01-29T02:40:10.316Z,15.75
2024-01-29T02:42:38.244Z,15.00
2024-01-29T02:45:06.874Z,15.00
2024-01-29T02:47:34.716Z,15.05
2024-01-29T02:50:02.846Z,15.90
2024-01-29T02:52:30.785Z,15.35
2024-01-29T02:54:58.705Z,17.08
2024-01-29T02:57:28.103Z,18.27
2024-01-29T02:59:55.959Z,17.80
2024-01-29T03:02:23.992Z,17.60
2024-01-29T03:04:52.723Z,17.33
2024-01-29T03:07:20.566Z,16.15
2024-01-29T03:09:48.989Z,15.23
2024-01-29T03:12:16.983Z,14.52
2024-01-29T03:14:46.131Z,15.75
2024-01-29T03:17:14.099Z,14.35
2024-01-29T03:19:42.103Z,15.48
2024-01-29T03:22:10.003Z,15.30
2024-01-29T03:24:37.911Z,15.52
2024-01-29T03:27:06.088Z,15.57
2024-01-29T03:29:33.953Z,14.32
2024-01-29T03:32:03.419Z,15.27
2024-01-29T03:34:31.373Z,13.48
2024-01-29T03:36:58.368Z,14.05
2024-01-29T03:39:26.239Z,14.73
2024-01-29T03:41:54.043Z,15.90
2024-01-29T03:44:21.762Z,15.35
2024-01-29T03:46:49.499Z,15.10
2024-01-29T03:49:18.774Z,15.45
2024-01-29T03:51:46.753Z,15.23
2024-01-29T03:54:14.666Z,14.63
2024-01-29T03:56:42.490Z,14.98
2024-01-29T03:59:12.164Z,14.15
2024-01-29T04:01:40.503Z,16.40
2024-01-29T04:04:11.936Z,16.25
2024-01-29T04:06:42.356Z,14.95
2024-01-29T04:09:11.201Z,15.02
2024-01-29T04:11:39.357Z,16.80
2024-01-29T04:14:07.203Z,15.27
2024-01-29T04:16:35.376Z,15.63
2024-01-29T04:19:03.243Z,16.88
2024-01-29T04:21:31.172Z,16.65
2024-01-29T04:24:00.396Z,14.93
2024-01-29T04:26:28.379Z,14.50
2024-01-29T04:28:56.155Z,14.50
2024-01-29T04:31:23.989Z,15.00
2024-01-29T04:33:51.864Z,14.45
2024-01-29T04:36:19.719Z,16.70
2024-01-29T04:38:47.518Z,14.95
2024-01-29T04:41:23.835Z,15.07
2024-01-29T04:43:51.908Z,12.27
2024-01-29T04:46:19.810Z,13.32
2024-01-29T04:48:47.714Z,12.48
2024-01-29T04:51:16.773Z,11.98
2024-01-29T04:53:44.549Z,11.70
2024-01-29T04:56:12.368Z,12.52
2024-01-29T04:58:41.590Z,11.50
2024-01-29T05:01:09.715Z,10.80
2024-01-29T05:03:37.968Z,10.90
2024-01-29T05:06:07.232Z,10.57
2024-01-29T05:08:35.059Z,9.50
2024-01-29T05:11:02.893Z,10.18
2024-01-29T05:13:30.689Z,8.52
2024-01-29T05:16:00.100Z,9.00
2024-01-29T05:18:28.039Z,8.52
2024-01-29T05:20:56.543Z,8.45
2024-01-29T05:23:24.954Z,7.53
2024-01-29T05:25:52.709Z,7.40
2024-01-29T05:28:20.559Z,8.82
2024-01-29T05:30:48.340Z,7.28
2024-01-29T05:33:25.448Z,7.70
2024-01-29T05:35:54.816Z,7.80
2024-01-29T05:38:22.665Z,7.88
2024-01-29T05:40:50.428Z,7.95
2024-01-29T05:43:18.233Z,7.65
2024-01-29T05:45:47.574Z,7.30
2024-01-29T05:48:17.020Z,7.50
2024-01-29T05:50:44.891Z,7.13
2024-01-29T05:53:12.784Z,7.60
2024-01-29T05:55:40.688Z,7.97
2024-01-29T05:58:08.685Z,7.57
2024-01-29T06:00:36.645Z,7.53
2024-01-29T06:03:04.865Z,8.55
2024-01-29T06:05:34.178Z,8.20
2024-01-29T06:08:02.264Z,8.10
2024-01-29T06:10:30.083Z,6.68
2024-01-29T06:12:57.904Z,6.53
2024-01-29T06:15:25.734Z,6.63
2024-01-29T06:17:53.788Z,6.57
2024-01-29T06:20:21.729Z,7.05
2024-01-29T06:22:50.954Z,6.15
2024-01-29T06:25:21.232Z,6.32
2024-01-29T06:27:50.012Z,5.35
2024-01-29T06:30:17.965Z,5.95
2024-01-29T06:32:45.831Z,5.97
2024-01-29T06:35:13.695Z,5.88
2024-01-29T06:37:41.711Z,7.72
2024-01-29T06:40:11.478Z,7.47
2024-01-29T06:42:39.481Z,7.53
2024-01-29T06:45:09.295Z,6.95
2024-01-29T06:47:37.551Z,6.82
2024-01-29T06:50:06.438Z,6.85
2024-01-29T06:52:34.215Z,7.93
2024-01-29T06:55:02.251Z,7.65
2024-01-29T06:57:31.474Z,7.57
2024-01-29T06:59:59.362Z,7.60
2024-01-29T07:02:27.133Z,6.82
2024-01-29T07:04:55.457Z,7.47
2024-01-29T07:07:23.259Z,6.53
2024-01-29T07:09:53.100Z,6.57
2024-01-29T07:12:20.936Z,8.93
2024-01-29T07:14:50.917Z,8.90
2024-01-29T07:17:18.799Z,12.20
2024-01-29T07:19:49.534Z,7.60
2024-01-29T07:22:20.089Z,7.18
2024-01-29T07:24:49.889Z,6.68
2024-01-29T07:27:17.880Z,6.97
2024-01-29T07:29:45.840Z,6.38
2024-01-29T07:32:15.105Z,6.60
2024-01-29T07:34:43.149Z,7.28
2024-01-29T07:37:11.009Z,8.20
2024-01-29T07:39:39.387Z,9.20
2024-01-29T07:42:07.372Z,9.02
2024-01-29T07:44:35.132Z,9.30
2024-01-29T07:47:02.970Z,8.98
2024-01-29T07:49:33.196Z,9.75
2024-01-29T07:52:01.210Z,10.02
2024-01-29T07:54:28.980Z,10.77
2024-01-29T07:56:56.835Z,9.48
2024-01-29T07:59:24.607Z,9.65
2024-01-29T08:01:52.452Z,9.30
2024-01-29T08:04:20.366Z,9.55
2024-01-29T08:06:49.747Z,10.52
2024-01-29T08:09:18.224Z,11.65
2024-01-29T08:11:45.996Z,11.13
2024-01-29T08:14:13.865Z,7.72
2024-01-29T08:16:41.640Z,6.82
2024-01-29T08:19:09.664Z,7.20
2024-01-29T08:21:38.334Z,5.80
2024-01-29T08:24:08.411Z,6.50
2024-01-29T08:26:36.422Z,5.47
2024-01-29T08:29:04.297Z,5.72
2024-01-29T08:31:33.461Z,5.95
2024-01-29T08:34:01.534Z,6.55
2024-01-29T08:36:29.489Z,4.88
2024-01-29T08:38:57.281Z,5.55
2024-01-29T08:41:26.730Z,6.35
2024-01-29T08:43:54.695Z,5.72
2024-01-29T08:46:22.638Z,6.72
2024-01-29T08:48:50.651Z,5.28
2024-01-29T08:51:18.519Z,6.80
2024-01-29T08:53:46.447Z,6.20
2024-01-29T08:56:14.391Z,6.03
2024-01-29T08:58:42.799Z,5.05
2024-01-29T09:01:12.283Z,5.57
2024-01-29T09:03:42.807Z,4.47
2024-01-29T09:06:12.403Z,5.18
2024-01-29T09:08:41.111Z,6.20
2024-01-29T09:11:10.008Z,5.15
2024-01-29T09:13:39.025Z,5.65
2024-01-29T09:16:10.054Z,4.97
2024-01-29T09:18:39.031Z,4.60
2024-01-29T09:21:10.567Z,5.30
2024-01-29T09:23:40.869Z,5.18
2024-01-29T09:26:09.550Z,5.72
2024-01-29T09:28:39.433Z,5.85
2024-01-29T09:31:10.877Z,5.30
2024-01-29T09:33:40.273Z,5.57
2024-01-29T09:36:09.023Z,6.32
2024-01-29T09:38:36.828Z,5.97
2024-01-29T09:41:05.806Z,5.65
2024-01-29T09:43:36.336Z,5.82
2024-01-29T09:46:05.858Z,6.93
2024-01-29T09:48:36.247Z,7.30
2024-01-29T09:51:05.452Z,7.00
2024-01-29T09:53:37.844Z,7.30
2024-01-29T09:56:06.319Z,6.93
2024-01-29T09:58:34.666Z,6.13
2024-01-29T10:01:05.596Z,6.07
2024-01-29T10:03:40.666Z,6.57
2024-01-29T10:06:08.730Z,6.53
2024-01-29T10:08:38.680Z,5.78
2024-01-29T10:11:07.017Z,5.78
2024-01-29T10:13:34.838Z,5.75
2024-01-29T10:16:02.899Z,6.43
2024-01-29T10:18:31.502Z,6.50
2024-01-29T10:21:06.771Z,6.00
2024-01-29T10:23:34.734Z,5.87
2024-01-29T10:26:02.919Z,5.78
2024-01-29T10:28:31.142Z,6.93
2024-01-29T10:30:59.635Z,6.72
2024-01-29T10:33:27.809Z,6.57
2024-01-29T10:36:00.398Z,6.63
2024-01-29T10:38:31.160Z,6.32
2024-01-29T10:41:01.662Z,7.47
2024-01-29T10:43:37.548Z,6.97
2024-01-29T10:46:09.390Z,6.80
2024-01-29T10:48:39.001Z,6.30
2024-01-29T10:51:09.314Z,6.75
2024-01-29T10:53:39.281Z,6.50
2024-01-29T10:56:08.190Z,6.82
2024-01-29T10:58:36.552Z,7.03
2024-01-29T11:01:06.255Z,7.10
2024-01-29T11:03:36.829Z,6.55
2024-01-29T11:06:13.278Z,6.45
2024-01-29T11:08:46.349Z,6.13
2024-01-29T11:11:14.765Z,6.35
2024-01-29T11:13:43.352Z,5.93
2024-01-29T11:16:11.414Z,6.05
2024-01-29T11:18:39.571Z,6.30
2024-01-29T11:21:11.970Z,6.25
2024-01-29T11:23:45.693Z,6.15
2024-01-29T11:26:16.146Z,7.47
2024-01-29T11:28:44.085Z,19.23
2024-01-29T11:31:13.230Z,7.00
2024-01-29T11:33:41.868Z,5.32
2024-01-29T11:36:14.048Z,6.88
2024-01-29T11:38:43.226Z,5.65
2024-01-29T11:41:14.200Z,5.40
2024-01-29T11:43:44.020Z,5.18
2024-01-29T11:46:16.444Z,5.50
2024-01-29T11:48:44.440Z,4.95
2024-01-29T11:51:13.155Z,16.40
2024-01-29T11:53:40.997Z,5.22
2024-01-29T11:56:10.144Z,5.35
2024-01-29T11:58:37.961Z,4.63
2024-01-29T12:01:06.196Z,5.18
2024-01-29T12:03:36.776Z,4.57
2024-01-29T12:06:06.485Z,3.88
2024-01-29T12:08:34.599Z,4.38
2024-01-29T12:11:03.812Z,3.85
2024-01-29T12:13:33.370Z,3.80
2024-01-29T12:16:04.155Z,7.10
2024-01-29T12:18:33.296Z,4.32
2024-01-29T12:21:01.966Z,5.75
2024-01-29T12:23:29.954Z,3.55
2024-01-29T12:25:59.679Z,3.40
2024-01-29T12:28:28.985Z,3.13
2024-01-29T12:31:00.581Z,3.85
2024-01-29T12:33:30.005Z,3.40
2024-01-29T12:35:58.931Z,3.15
2024-01-29T12:38:27.112Z,2.97
2024-01-29T12:40:57.448Z,3.30
2024-01-29T12:43:29.377Z,3.40
2024-01-29T12:46:09.943Z,3.15
2024-01-29T12:48:38.337Z,3.40
2024-01-29T12:51:07.111Z,3.38
2024-01-29T12:53:34.939Z,3.60
2024-01-29T12:56:03.344Z,3.90
2024-01-29T12:58:31.747Z,3.50
2024-01-29T13:00:59.832Z,3.35
2024-01-29T13:03:28.290Z,3.33
2024-01-29T13:05:58.342Z,3.03
2024-01-29T13:08:28.061Z,3.40
2024-01-29T13:10:56.089Z,3.47
2024-01-29T13:13:25.061Z,4.13
2024-01-29T13:15:53.819Z,3.90
2024-01-29T13:18:22.609Z,3.53
2024-01-29T13:20:51.921Z,3.05
2024-01-29T13:23:20.035Z,3.25
2024-01-29T13:25:48.616Z,3.50
2024-01-29T13:28:16.719Z,3.13
2024-01-29T13:30:45.314Z,3.10
2024-01-29T13:33:13.449Z,3.60
2024-01-29T13:35:41.495Z,4.20
2024-01-29T13:38:10.886Z,4.50
2024-01-29T13:40:38.685Z,5.57
2024-01-29T13:43:08.135Z,6.68
2024-01-29T13:45:36.869Z,5.80
2024-01-29T13:48:05.411Z,5.68
2024-01-29T13:50:33.196Z,4.72
2024-01-29T13:53:01.202Z,5.20
2024-01-29T13:55:30.410Z,5.57
2024-01-29T13:57:58.309Z,5.40
2024-01-29T14:00:26.492Z,4.55
2024-01-29T14:02:54.472Z,4.80
2024-01-29T14:05:22.276Z,4.90
2024-01-29T14:07:50.120Z,4.20
2024-01-29T14:10:18.028Z,3.92
2024-01-29T14:12:47.205Z,4.00
2024-01-29T14:15:15.225Z,3.97
2024-01-29T14:17:42.995Z,3.97
2024-01-29T14:20:11.895Z,3.60
2024-01-29T14:22:40.602Z,3.83
2024-01-29T14:25:09.101Z,4.07
2024-01-29T14:27:36.971Z,4.15
2024-01-29T14:30:07.054Z,4.35
2024-01-29T14:32:34.956Z,4.15
2024-01-29T14:35:03.036Z,4.20
2024-01-29T14:37:30.991Z,4.60
2024-01-29T14:39:58.793Z,4.28
2024-01-29T14:42:26.628Z,4.72
2024-01-29T14:44:56.627Z,4.53
2024-01-29T14:47:26.291Z,4.63
2024-01-29T14:49:55.583Z,4.28
2024-01-29T14:52:23.489Z,4.53
2024-01-29T14:54:51.400Z,4.38
2024-01-29T14:57:19.368Z,5.03
2024-01-29T14:59:47.120Z,4.30
2024-01-29T15:02:15.043Z,3.90
2024-01-29T15:04:44.276Z,4.70
2024-01-29T15:07:12.251Z,7.15
2024-01-29T15:09:40.266Z,6.88
2024-01-29T15:12:08.992Z,5.97
2024-01-29T15:14:37.066Z,5.07
2024-01-29T15:17:06.346Z,5.20
2024-01-29T15:19:34.293Z,5.40
2024-01-29T15:22:05.205Z,3.92
2024-01-29T15:24:33.390Z,4.25
2024-01-29T15:27:01.170Z,3.97
2024-01-29T15:29:29.075Z,5.30
2024-01-29T15:31:57.093Z,5.90
2024-01-29T15:34:25.416Z,6.45
2024-01-29T15:36:53.375Z,6.20
2024-01-29T15:39:22.593Z,6.32
2024-01-29T15:41:50.931Z,7.22
2024-01-29T15:44:18.839Z,5.88
2024-01-29T15:46:46.649Z,6.28
2024-01-29T15:49:14.803Z,5.53
2024-01-29T15:51:42.792Z,6.13
2024-01-29T15:54:10.673Z,5.80
2024-01-29T15:56:39.831Z,5.60
2024-01-29T15:59:08.393Z,5.32
2024-01-29T16:01:36.243Z,5.43
2024-01-29T16:04:05.603Z,6.57
2024-01-29T16:06:35.510Z,8.60
2024-01-29T16:09:04.227Z,8.27
2024-01-29T16:11:32.125Z,6.80
2024-01-29T16:14:01.342Z,6.68
2024-01-29T16:16:29.173Z,6.05
2024-01-29T16:18:57.154Z,6.82
2024-01-29T16:21:25.665Z,6.70
2024-01-29T16:23:54.344Z,6.95
2024-01-29T16:26:22.923Z,7.30
2024-01-29T16:28:51.025Z,7.97
2024-01-29T16:31:20.612Z,6.28
2024-01-29T16:33:48.440Z,6.95
2024-01-29T16:36:23.539Z,6.32
2024-01-29T16:38:52.367Z,5.88
2024-01-29T16:41:22.061Z,5.78
2024-01-29T16:43:50.228Z,6.10
2024-01-29T16:46:18.280Z,6.22
2024-01-29T16:48:47.557Z,5.82
2024-01-29T16:51:22.242Z,5.65
2024-01-29T16:53:50.515Z,5.72
2024-01-29T16:56:27.580Z,6.55
2024-01-29T16:58:55.907Z,6.20
2024-01-29T17:01:23.916Z,6.47
2024-01-29T17:03:53.534Z,6.28
2024-01-29T17:06:21.528Z,6.15
2024-01-29T17:08:49.716Z,12.63
2024-01-29T17:11:18.321Z,9.60
2024-01-29T17:13:48.805Z,6.38
2024-01-29T17:16:17.870Z,7.25
2024-01-29T17:18:46.121Z,6.28
2024-01-29T17:21:16.399Z,7.75
2024-01-29T17:23:44.704Z,7.97
2024-01-29T17:26:13.192Z,7.53
2024-01-29T17:28:42.921Z,8.00
2024-01-29T17:31:10.953Z,10.60
2024-01-29T17:33:39.021Z,11.35
2024-01-29T17:36:09.883Z,10.15
2024-01-29T17:38:39.266Z,11.18
2024-01-29T17:41:07.452Z,10.88
2024-01-29T17:43:35.681Z,10.82
2024-01-29T17:46:03.740Z,11.60
2024-01-29T17:48:33.268Z,14.00
2024-01-29T17:51:05.343Z,18.25
2024-01-29T17:53:33.346Z,19.63
2024-01-29T17:56:02.880Z,17.95
2024-01-29T17:58:30.689Z,18.95
2024-01-29T18:00:58.969Z,22.52
2024-01-29T18:03:27.709Z,21.85
2024-01-29T18:05:55.881Z,15.57
2024-01-29T18:08:24.736Z,14.50
2024-01-29T18:10:53.167Z,15.25
2024-01-29T18:13:22.674Z,12.77
2024-01-29T18:15:50.756Z,13.48
2024-01-29T18:18:18.914Z,14.10
2024-01-29T18:20:47.127Z,14.40
2024-01-29T18:23:15.487Z,11.30
2024-01-29T18:25:43.788Z,10.60
2024-01-29T18:28:11.744Z,10.18
2024-01-29T18:30:41.171Z,9.68
2024-01-29T18:33:09.275Z,10.88
2024-01-29T18:35:37.609Z,13.05
2024-01-29T18:38:06.122Z,11.70
2024-01-29T18:40:35.110Z,11.15
2024-01-29T18:43:03.425Z,10.90
2024-01-29T18:45:31.544Z,9.50
2024-01-29T18:48:02.647Z,10.82
2024-01-29T18:50:30.764Z,10.93
2024-01-29T18:52:58.796Z,11.27
2024-01-29T18:55:26.720Z,11.88
2024-01-29T18:57:55.201Z,11.75
2024-01-29T19:00:23.580Z,13.32
2024-01-29T19:02:51.561Z,12.48
2024-01-29T19:05:21.182Z,12.30
2024-01-29T19:07:50.838Z,10.23
2024-01-29T19:10:19.756Z,11.18
2024-01-29T19:12:47.741Z,11.00
2024-01-29T19:15:15.676Z,10.55
2024-01-29T19:17:43.848Z,10.32
2024-01-29T19:20:13.410Z,10.25
2024-01-29T19:22:42.827Z,10.23
2024-01-29T19:25:12.030Z,11.23
2024-01-29T19:27:40.225Z,10.68
2024-01-29T19:30:10.770Z,10.90
2024-01-29T19:32:39.733Z,10.68
2024-01-29T19:35:10.084Z,10.57
2024-01-29T19:37:38.609Z,11.40
2024-01-29T19:40:10.961Z,11.63
2024-01-29T19:42:38.907Z,11.70
2024-01-29T19:45:07.707Z,13.65
2024-01-29T19:47:35.870Z,14.88
2024-01-29T19:50:08.277Z,21.83
2024-01-29T19:52:36.204Z,35.17
2024-01-29T19:55:04.261Z,36.38
2024-01-29T19:57:33.994Z,32.92
2024-01-29T20:00:02.199Z,33.38
2024-01-29T20:02:30.138Z,31.73
2024-01-29T20:05:00.194Z,32.33
2024-01-29T20:07:28.278Z,33.20
2024-01-29T20:09:56.554Z,32.70
2024-01-29T20:12:24.669Z,31.15
2024-01-29T20:14:54.494Z,28.48
2024-01-29T20:17:23.734Z,25.45
2024-01-29T20:19:51.918Z,24.83
2024-01-29T20:22:20.381Z,25.02
2024-01-29T20:24:48.328Z,22.58
2024-01-29T20:27:16.217Z,21.35
2024-01-29T20:29:45.207Z,19.85
2024-01-29T20:32:14.403Z,20.15
2024-01-29T20:34:42.377Z,20.67
2024-01-29T20:37:10.424Z,17.08
2024-01-29T20:39:38.692Z,18.75
2024-01-29T20:42:08.293Z,15.90
2024-01-29T20:44:36.140Z,16.00
2024-01-29T20:47:04.193Z,15.65
2024-01-29T20:49:34.787Z,16.15
2024-01-29T20:52:02.799Z,15.25
2024-01-29T20:54:30.697Z,21.25
2024-01-29T20:57:01.176Z,19.88
2024-01-29T20:59:29.427Z,21.27
2024-01-29T21:01:57.500Z,17.42
2024-01-29T21:04:27.824Z,16.42
2024-01-29T21:07:02.091Z,11.63
2024-01-29T21:09:29.986Z,10.73
2024-01-29T21:11:57.805Z,10.32
2024-01-29T21:14:25.635Z,10.82
2024-01-29T21:16:53.484Z,9.82
2024-01-29T21:19:21.352Z,11.55
2024-01-29T21:21:49.263Z,10.82
2024-01-29T21:24:18.832Z,11.38
2024-01-29T21:26:46.587Z,11.73
2024-01-29T21:29:14.699Z,12.98
2024-01-29T21:31:42.545Z,13.57
2024-01-29T21:34:10.476Z,21.08
2024-01-29T21:36:38.382Z,21.92
2024-01-29T21:39:06.622Z,16.17
2024-01-29T21:41:37.587Z,14.60
2024-01-29T21:44:05.618Z,15.07
2024-01-29T21:46:33.410Z,11.80
2024-01-29T21:49:01.386Z,12.80
2024-01-29T21:51:29.506Z,13.13
2024-01-29T21:53:57.406Z,12.55
2024-01-29T21:56:25.566Z,13.30
2024-01-29T21:58:54.708Z,12.75
2024-01-29T22:01:22.574Z,11.70
2024-01-29T22:03:50.482Z,12.80
2024-01-29T22:06:21.126Z,11.40
2024-01-29T22:08:49.118Z,10.48
2024-01-29T22:11:16.871Z,11.55
2024-01-29T22:13:44.670Z,10.52
2024-01-29T22:16:14.011Z,10.90
2024-01-29T22:18:42.182Z,11.63
2024-01-29T22:21:10.787Z,9.93
2024-01-29T22:23:38.782Z,9.38
2024-01-29T22:26:06.713Z,10.32
2024-01-29T22:28:34.464Z,11.13
2024-01-29T22:31:02.318Z,10.50
2024-01-29T22:33:31.559Z,10.88
2024-01-29T22:35:59.353Z,10.45
2024-01-29T22:38:27.154Z,9.95
2024-01-29T22:40:55.395Z,10.75
2024-01-29T22:43:23.403Z,10.18
2024-01-29T22:45:51.299Z,11.85
2024-01-29T22:48:19.108Z,10.00
2024-01-29T22:50:48.431Z,11.35
2024-01-29T22:53:16.273Z,11.13
2024-01-29T22:55:44.044Z,11.50
2024-01-29T22:58:12.068Z,10.98
2024-01-29T23:00:40.373Z,11.27
2024-01-29T23:03:09.121Z,11.88
2024-01-29T23:05:37.032Z,12.35
2024-01-29T23:08:06.829Z,12.82
2024-01-29T23:10:35.409Z,12.82
2024-01-29T23:13:03.373Z,12.18
2024-01-29T23:15:31.494Z,13.57
2024-01-29T23:17:59.570Z,14.68
2024-01-29T23:20:28.513Z,14.43
2024-01-29T23:22:56.403Z,17.02
2024-01-29T23:25:25.885Z,13.25
2024-01-29T23:27:53.679Z,13.55
2024-01-29T23:30:21.467Z,15.05
2024-01-29T23:32:50.615Z,10.88
2024-01-29T23:35:18.695Z,11.20
2024-01-29T23:37:46.503Z,9.85
2024-01-29T23:40:14.412Z,9.23
2024-01-29T23:42:43.628Z,9.40
2024-01-29T23:45:11.452Z,9.85
2024-01-29T23:47:39.198Z,9.82
2024-01-29T23:50:07.669Z,9.95
2024-01-29T23:52:35.516Z,9.90
2024-01-29T23:55:03.327Z,9.55
2024-01-29T23:57:32.681Z,10.85
